createdAt,value
2022-10-14T00:04:41.945Z,13.36
2022-10-14T00:09:43.692Z,13.33
2022-10-14T00:14:47.435Z,13.42
2022-10-14T00:19:49.050Z,13.51
2022-10-14T00:24:50.731Z,13.52
2022-10-14T00:29:52.483Z,13.51
2022-10-14T00:34:54.212Z,13.40
2022-10-14T00:39:57.147Z,13.40
2022-10-14T00:45:07.943Z,13.32
2022-10-14T00:50:12.875Z,13.24
2022-10-14T00:55:17.840Z,13.30
2022-10-14T01:00:21.811Z,13.40
2022-10-14T01:05:26.610Z,13.45
2022-10-14T01:10:43.560Z,13.25
2022-10-14T01:15:51.676Z,13.26
2022-10-14T01:21:05.429Z,13.27
2022-10-14T01:26:19.276Z,13.34
2022-10-14T01:31:30.142Z,13.42
2022-10-14T01:36:49.222Z,13.49
2022-10-14T01:41:57.425Z,13.51
2022-10-14T01:47:03.073Z,13.48
2022-10-14T01:52:12.620Z,13.48
2022-10-14T01:57:22.562Z,13.41
2022-10-14T02:02:25.150Z,13.39
2022-10-14T02:07:32.389Z,13.34
2022-10-14T02:12:52.409Z,13.32
2022-10-14T02:18:00.669Z,13.28
2022-10-14T02:23:10.914Z,13.32
2022-10-14T02:28:21.883Z,13.40
2022-10-14T02:33:28.788Z,13.47
2022-10-14T02:38:33.818Z,13.57
2022-10-14T02:43:35.850Z,13.62
2022-10-14T02:48:41.226Z,13.67
2022-10-14T02:53:42.923Z,13.65
2022-10-14T02:58:44.965Z,13.56
2022-10-14T03:03:47.288Z,13.61
2022-10-14T03:08:49.353Z,13.69
2022-10-14T03:13:51.295Z,13.75
2022-10-14T03:18:55.695Z,13.77
2022-10-14T03:24:12.253Z,13.78
2022-10-14T03:29:15.947Z,13.77
2022-10-14T03:34:32.578Z,13.77
2022-10-14T03:39:41.682Z,13.79
2022-10-14T03:44:44.705Z,13.78
2022-10-14T03:49:57.230Z,13.81
2022-10-14T03:55:13.616Z,13.85
2022-10-14T04:00:18.409Z,13.73
2022-10-14T04:05:25.046Z,13.55
2022-10-14T04:10:27.300Z,13.43
2022-10-14T04:15:31.083Z,13.34
2022-10-14T04:20:53.745Z,13.34
2022-10-14T04:25:57.915Z,13.35
2022-10-14T04:31:00.583Z,13.30
2022-10-14T04:36:09.415Z,13.21
2022-10-14T04:41:15.074Z,13.03
2022-10-14T04:46:22.167Z,12.84
2022-10-14T04:51:23.968Z,12.80
2022-10-14T04:56:34.555Z,12.86
2022-10-14T05:01:40.013Z,12.82
2022-10-14T05:06:42.223Z,12.66
2022-10-14T05:11:47.252Z,12.55
2022-10-14T05:16:53.530Z,12.54
2022-10-14T05:22:02.447Z,13.09
2022-10-14T05:27:11.397Z,13.44
2022-10-14T05:32:13.699Z,13.37
2022-10-14T05:37:24.064Z,13.22
2022-10-14T05:42:27.890Z,13.23
2022-10-14T05:47:32.626Z,13.20
2022-10-14T05:52:41.966Z,12.92
2022-10-14T05:57:55.764Z,12.89
2022-10-14T06:03:01.010Z,12.99
2022-10-14T06:08:02.897Z,12.95
2022-10-14T06:13:04.888Z,13.00
2022-10-14T06:18:09.362Z,13.09
2022-10-14T06:23:11.184Z,13.18
2022-10-14T06:28:12.998Z,13.24
2022-10-14T06:33:14.662Z,13.30
2022-10-14T06:38:16.446Z,13.38
2022-10-14T06:43:18.888Z,13.44
2022-10-14T06:48:20.736Z,13.52
2022-10-14T06:53:22.443Z,13.61
2022-10-14T06:58:24.324Z,13.68
2022-10-14T07:03:26.170Z,13.77
2022-10-14T07:08:27.882Z,13.88
2022-10-14T07:13:29.721Z,13.98
2022-10-14T07:18:32.186Z,14.07
2022-10-14T07:23:34.040Z,14.11
2022-10-14T07:28:35.891Z,14.18
2022-10-14T07:33:39.089Z,14.28
2022-10-14T07:38:41.697Z,14.37
2022-10-14T07:43:45.582Z,14.45
2022-10-14T07:48:56.777Z,14.53
2022-10-14T07:54:01.770Z,14.62
2022-10-14T07:59:03.902Z,14.70
2022-10-14T08:04:05.935Z,14.76
2022-10-14T08:09:09.447Z,14.84
2022-10-14T08:14:11.672Z,14.90
2022-10-14T08:19:14.896Z,14.96
2022-10-14T08:24:16.699Z,15.04
2022-10-14T08:29:18.804Z,15.17
2022-10-14T08:34:21.692Z,15.30
2022-10-14T08:39:23.564Z,15.37
2022-10-14T08:44:28.642Z,15.38
2022-10-14T08:49:45.971Z,15.49
2022-10-14T08:54:52.053Z,15.60
2022-10-14T08:59:54.518Z,15.77
2022-10-14T09:04:59.803Z,15.90
2022-10-14T09:10:11.339Z,15.98
2022-10-14T09:15:16.584Z,16.03
2022-10-14T09:20:22.108Z,16.08
2022-10-14T09:25:23.889Z,16.19
2022-10-14T09:30:25.930Z,16.35
2022-10-14T09:35:32.851Z,16.49
2022-10-14T09:40:41.471Z,16.51
2022-10-14T09:45:48.448Z,16.49
2022-10-14T09:50:53.540Z,16.46
2022-10-14T09:55:58.761Z,16.56
2022-10-14T10:01:01.890Z,16.81
2022-10-14T10:06:07.134Z,17.07
2022-10-14T10:11:13.866Z,17.19
2022-10-14T10:16:18.851Z,17.25
2022-10-14T10:21:26.340Z,17.33
2022-10-14T10:26:31.809Z,17.52
2022-10-14T10:32:15.352Z,17.69
2022-10-14T10:37:17.294Z,17.89
2022-10-14T10:42:39.384Z,17.99
2022-10-14T10:47:52.108Z,17.99
2022-10-14T10:53:09.822Z,18.11
2022-10-14T10:58:26.170Z,18.20
2022-10-14T11:03:46.508Z,18.27
2022-10-14T11:09:23.542Z,18.29
2022-10-14T11:14:48.515Z,18.25
2022-10-14T11:19:59.039Z,18.45
2022-10-14T11:25:22.745Z,18.52
2022-10-14T11:31:02.786Z,18.70
2022-10-14T11:36:15.050Z,18.89
2022-10-14T11:41:22.489Z,18.93
2022-10-14T11:46:28.913Z,18.91
2022-10-14T11:51:38.898Z,18.69
2022-10-14T11:56:54.782Z,18.60
2022-10-14T12:02:03.917Z,18.67
2022-10-14T12:07:12.653Z,18.58
2022-10-14T12:12:20.133Z,18.54
2022-10-14T12:17:32.224Z,18.53
2022-10-14T12:22:35.585Z,18.53
2022-10-14T12:27:37.797Z,18.48
2022-10-14T12:33:01.656Z,18.57
2022-10-14T12:38:03.951Z,18.54
2022-10-14T12:43:15.691Z,18.50
2022-10-14T12:48:22.174Z,18.50
2022-10-14T12:53:27.244Z,18.51
2022-10-14T12:58:35.050Z,18.52
2022-10-14T13:03:52.887Z,18.59
2022-10-14T13:09:18.365Z,18.65
2022-10-14T13:14:30.038Z,18.64
2022-10-14T13:19:34.548Z,18.66
2022-10-14T13:24:41.599Z,18.68
2022-10-14T13:30:10.689Z,18.70
2022-10-14T13:35:18.972Z,18.65
2022-10-14T13:40:37.508Z,18.59
2022-10-14T13:45:46.869Z,18.52
2022-10-14T13:50:52.189Z,18.47
2022-10-14T13:55:54.746Z,18.42
2022-10-14T14:00:57.902Z,18.37
2022-10-14T14:06:00.851Z,18.32
2022-10-14T14:11:19.498Z,18.28
2022-10-14T14:16:24.291Z,18.21
2022-10-14T14:21:28.352Z,18.16
2022-10-14T14:26:37.320Z,18.13
2022-10-14T14:32:06.076Z,18.00
2022-10-14T14:37:16.563Z,17.89
2022-10-14T14:42:26.281Z,17.88
2022-10-14T14:47:29.340Z,17.87
2022-10-14T14:52:31.417Z,17.84
2022-10-14T14:57:33.190Z,17.79
2022-10-14T15:02:35.276Z,17.62
2022-10-14T15:07:37.427Z,17.44
2022-10-14T15:12:50.474Z,17.37
2022-10-14T15:18:10.633Z,17.28
2022-10-14T15:23:37.808Z,17.19
2022-10-14T15:28:39.539Z,17.15
2022-10-14T15:33:41.688Z,17.14
2022-10-14T15:38:43.380Z,17.08
2022-10-14T15:43:45.074Z,17.02
2022-10-14T15:48:50.204Z,16.98
2022-10-14T15:53:51.940Z,16.94
2022-10-14T15:58:53.665Z,16.91
2022-10-14T16:03:55.845Z,16.86
2022-10-14T16:08:58.469Z,16.81
2022-10-14T16:14:00.152Z,16.76
2022-10-14T16:19:04.846Z,16.74
2022-10-14T16:24:07.463Z,16.68
2022-10-14T16:29:10.246Z,16.62
2022-10-14T16:34:11.866Z,16.58
2022-10-14T16:39:13.651Z,16.57
2022-10-14T16:44:25.020Z,16.54
2022-10-14T16:49:26.885Z,16.50
2022-10-14T16:54:28.653Z,16.49
2022-10-14T16:59:31.249Z,16.45
2022-10-14T17:04:32.998Z,16.41
2022-10-14T17:09:36.322Z,16.39
2022-10-14T17:14:38.132Z,16.34
2022-10-14T17:19:39.923Z,16.32
2022-10-14T17:24:41.680Z,16.29
2022-10-14T17:29:44.431Z,16.24
2022-10-14T17:34:46.229Z,16.24
2022-10-14T17:39:48.146Z,16.25
2022-10-14T17:44:49.888Z,16.21
2022-10-14T17:49:51.572Z,16.14
2022-10-14T17:54:56.395Z,16.11
2022-10-14T18:00:00.554Z,16.10
2022-10-14T18:05:03.283Z,16.09
2022-10-14T18:10:05.982Z,16.09
2022-10-14T18:15:08.102Z,16.05
2022-10-14T18:20:09.918Z,16.04
2022-10-14T18:25:11.578Z,15.99
2022-10-14T18:30:13.466Z,15.98
2022-10-14T18:35:15.147Z,15.96
2022-10-14T18:40:18.293Z,15.96
2022-10-14T18:45:20.046Z,15.98
2022-10-14T18:50:21.860Z,15.96
2022-10-14T18:55:23.725Z,15.97
2022-10-14T19:00:26.802Z,15.97
2022-10-14T19:05:32.836Z,15.99
2022-10-14T19:10:34.954Z,16.02
2022-10-14T19:15:45.403Z,16.00
2022-10-14T19:20:56.272Z,16.02
2022-10-14T19:25:59.178Z,16.02
2022-10-14T19:31:15.539Z,16.02
2022-10-14T19:36:19.582Z,16.02
2022-10-14T19:41:21.342Z,16.01
2022-10-14T19:46:27.196Z,16.01
2022-10-14T19:51:29.228Z,16.03
2022-10-14T19:56:31.141Z,16.00
2022-10-14T20:01:33.625Z,16.01
2022-10-14T20:06:35.726Z,16.01
2022-10-14T20:11:37.946Z,15.98
2022-10-14T20:16:39.796Z,16.01
2022-10-14T20:21:41.571Z,16.01
2022-10-14T20:26:43.235Z,16.02
2022-10-14T20:31:45.006Z,15.98
2022-10-14T20:36:46.685Z,16.00
2022-10-14T20:41:48.443Z,16.01
2022-10-14T20:46:50.267Z,16.02
2022-10-14T20:51:52.019Z,16.02
2022-10-14T20:56:54.480Z,16.04
2022-10-14T21:01:56.298Z,16.04
2022-10-14T21:06:58.090Z,16.03
2022-10-14T21:11:59.833Z,15.96
2022-10-14T21:17:01.515Z,15.83
2022-10-14T21:22:04.067Z,15.80
2022-10-14T21:27:05.976Z,15.68
2022-10-14T21:32:08.166Z,15.59
2022-10-14T21:37:09.978Z,15.58
2022-10-14T21:42:11.940Z,15.53
2022-10-14T21:47:13.733Z,15.46
2022-10-14T21:52:15.710Z,15.44
2022-10-14T21:57:17.587Z,15.46
2022-10-14T22:02:19.326Z,15.45
2022-10-14T22:07:21.329Z,15.42
2022-10-14T22:12:24.324Z,15.40
2022-10-14T22:17:26.305Z,15.41
2022-10-14T22:22:28.283Z,15.41
2022-10-14T22:27:30.163Z,15.42
2022-10-14T22:32:32.029Z,15.42
2022-10-14T22:37:33.710Z,15.44
2022-10-14T22:42:36.969Z,15.44
2022-10-14T22:47:40.975Z,15.39
2022-10-14T22:52:42.732Z,15.35
2022-10-14T22:57:44.427Z,15.34
2022-10-14T23:02:46.346Z,15.33
2022-10-14T23:07:48.090Z,15.29
2022-10-14T23:12:49.814Z,15.29
2022-10-14T23:17:51.744Z,15.33
2022-10-14T23:22:53.590Z,15.33
2022-10-14T23:27:55.260Z,15.33
2022-10-14T23:32:57.027Z,15.32
2022-10-14T23:37:58.657Z,15.33
2022-10-14T23:43:01.441Z,15.32
2022-10-14T23:48:03.121Z,15.30
2022-10-14T23:53:04.918Z,15.27
2022-10-14T23:58:06.620Z,15.25
